sensor_id;sensor_type;location;lat;lon;timestamp;pressure;altitude;pressure_sealevel;temperature;humidity
78409;BME280;67697;50.750;-3.270;2023-04-01T00:00:46;99651.56;;;8.33;74.76
78409;BME280;67697;50.750;-3.270;2023-04-01T00:03:12;99650.01;;;8.29;74.49
78409;BME280;67697;50.750;-3.270;2023-04-01T00:05:38;99651.58;;;8.20;74.69
78409;BME280;67697;50.750;-3.270;2023-04-01T00:08:03;99657.18;;;8.21;74.75
78409;BME280;67697;50.750;-3.270;2023-04-01T00:10:29;99654.46;;;8.43;73.41
78409;BME280;67697;50.750;-3.270;2023-04-01T00:12:54;99656.96;;;8.48;73.74
78409;BME280;67697;50.750;-3.270;2023-04-01T00:15:19;99659.17;;;8.42;73.70
78409;BME280;67697;50.750;-3.270;2023-04-01T00:17:45;99659.76;;;8.40;73.55
78409;BME280;67697;50.750;-3.270;2023-04-01T00:20:11;99664.41;;;8.61;73.17
78409;BME280;67697;50.750;-3.270;2023-04-01T00:22:36;99668.45;;;8.29;73.15
78409;BME280;67697;50.750;-3.270;2023-04-01T00:25:02;99668.52;;;8.25;73.32
78409;BME280;67697;50.750;-3.270;2023-04-01T00:27:27;99674.71;;;7.93;75.32
78409;BME280;67697;50.750;-3.270;2023-04-01T00:29:52;99680.31;;;7.93;74.92
78409;BME280;67697;50.750;-3.270;2023-04-01T00:32:18;99680.55;;;7.72;76.76
78409;BME280;67697;50.750;-3.270;2023-04-01T00:34:44;99678.32;;;8.18;74.62
78409;BME280;67697;50.750;-3.270;2023-04-01T00:37:09;99681.92;;;8.00;74.85
78409;BME280;67697;50.750;-3.270;2023-04-01T00:39:35;99684.60;;;7.70;75.94
78409;BME280;67697;50.750;-3.270;2023-04-01T00:42:02;99690.74;;;8.02;75.26
78409;BME280;67697;50.750;-3.270;2023-04-01T00:44:28;99689.65;;;8.10;75.28
78409;BME280;67697;50.750;-3.270;2023-04-01T00:46:52;99690.36;;;7.69;76.35
78409;BME280;67697;50.750;-3.270;2023-04-01T00:49:20;99689.94;;;8.17;76.36
78409;BME280;67697;50.750;-3.270;2023-04-01T00:51:45;99689.51;;;8.32;74.30
78409;BME280;67697;50.750;-3.270;2023-04-01T00:54:09;99688.74;;;8.03;74.89
78409;BME280;67697;50.750;-3.270;2023-04-01T00:56:36;99688.63;;;7.98;74.22
78409;BME280;67697;50.750;-3.270;2023-04-01T00:59:03;99691.95;;;8.36;73.54
78409;BME280;67697;50.750;-3.270;2023-04-01T01:01:28;99698.41;;;7.83;74.32
78409;BME280;67697;50.750;-3.270;2023-04-01T01:03:52;99698.09;;;8.00;74.01
78409;BME280;67697;50.750;-3.270;2023-04-01T01:06:26;99695.64;;;8.31;73.58
78409;BME280;67697;50.750;-3.270;2023-04-01T01:08:55;99698.07;;;7.94;74.09
78409;BME280;67697;50.750;-3.270;2023-04-01T01:11:10;99697.57;;;8.14;74.42
78409;BME280;67697;50.750;-3.270;2023-04-01T01:13:38;99708.49;;;8.18;74.18
78409;BME280;67697;50.750;-3.270;2023-04-01T01:16:03;99704.11;;;7.90;74.22
78409;BME280;67697;50.750;-3.270;2023-04-01T01:18:31;99703.05;;;8.48;72.51
78409;BME280;67697;50.750;-3.270;2023-04-01T01:23:31;99702.79;;;7.81;73.69
78409;BME280;67697;50.750;-3.270;2023-04-01T01:25:48;99707.69;;;7.97;73.75
78409;BME280;67697;50.750;-3.270;2023-04-01T01:28:21;99704.69;;;8.17;73.68
78409;BME280;67697;50.750;-3.270;2023-04-01T01:30:39;99702.39;;;8.35;73.71
78409;BME280;67697;50.750;-3.270;2023-04-01T01:33:09;99711.57;;;7.63;74.38
78409;BME280;67697;50.750;-3.270;2023-04-01T01:35:27;99705.58;;;8.06;73.39
78409;BME280;67697;50.750;-3.270;2023-04-01T01:37:53;99702.05;;;8.34;72.43
78409;BME280;67697;50.750;-3.270;2023-04-01T01:40:17;99701.32;;;8.52;70.82
78409;BME280;67697;50.750;-3.270;2023-04-01T01:42:45;99709.58;;;8.46;71.63
78409;BME280;67697;50.750;-3.270;2023-04-01T01:45:09;99716.59;;;7.73;73.47
78409;BME280;67697;50.750;-3.270;2023-04-01T01:47:33;99716.37;;;8.21;72.86
78409;BME280;67697;50.750;-3.270;2023-04-01T01:49:59;99714.23;;;7.80;74.14
78409;BME280;67697;50.750;-3.270;2023-04-01T01:52:24;99721.63;;;7.60;74.71
78409;BME280;67697;50.750;-3.270;2023-04-01T01:54:50;99728.60;;;7.94;74.95
78409;BME280;67697;50.750;-3.270;2023-04-01T01:57:17;99719.16;;;8.14;74.34
78409;BME280;67697;50.750;-3.270;2023-04-01T01:59:42;99720.68;;;8.00;74.06
78409;BME280;67697;50.750;-3.270;2023-04-01T02:02:07;99726.26;;;7.82;73.72
78409;BME280;67697;50.750;-3.270;2023-04-01T02:04:32;99721.11;;;7.86;74.07
78409;BME280;67697;50.750;-3.270;2023-04-01T02:07:02;99725.62;;;7.97;74.24
78409;BME280;67697;50.750;-3.270;2023-04-01T02:09:23;99725.30;;;8.02;72.53
78409;BME280;67697;50.750;-3.270;2023-04-01T02:11:51;99722.37;;;8.49;72.07
78409;BME280;67697;50.750;-3.270;2023-04-01T02:14:16;99730.01;;;8.33;72.35
78409;BME280;67697;50.750;-3.270;2023-04-01T02:16:45;99720.64;;;8.48;72.11
78409;BME280;67697;50.750;-3.270;2023-04-01T02:19:07;99720.27;;;8.56;71.70
78409;BME280;67697;50.750;-3.270;2023-04-01T02:21:32;99726.61;;;8.20;72.11
78409;BME280;67697;50.750;-3.270;2023-04-01T02:23:59;99726.49;;;8.16;72.59
78409;BME280;67697;50.750;-3.270;2023-04-01T02:26:24;99728.89;;;7.94;74.48
78409;BME280;67697;50.750;-3.270;2023-04-01T02:28:49;99725.36;;;8.45;71.35
78409;BME280;67697;50.750;-3.270;2023-04-01T02:31:14;99719.97;;;8.41;71.05
78409;BME280;67697;50.750;-3.270;2023-04-01T02:33:40;99725.03;;;8.31;71.73
78409;BME280;67697;50.750;-3.270;2023-04-01T02:36:06;99724.40;;;7.95;71.90
78409;BME280;67697;50.750;-3.270;2023-04-01T02:38:31;99721.98;;;8.44;70.46
78409;BME280;67697;50.750;-3.270;2023-04-01T02:40:59;99720.52;;;8.35;70.82
78409;BME280;67697;50.750;-3.270;2023-04-01T02:43:22;99727.99;;;7.92;72.40
78409;BME280;67697;50.750;-3.270;2023-04-01T02:45:47;99724.31;;;7.81;72.80
78409;BME280;67697;50.750;-3.270;2023-04-01T02:48:13;99726.10;;;8.12;73.85
78409;BME280;67697;50.750;-3.270;2023-04-01T02:50:39;99729.81;;;8.25;73.44
78409;BME280;67697;50.750;-3.270;2023-04-01T02:53:05;99726.38;;;7.97;72.85
78409;BME280;67697;50.750;-3.270;2023-04-01T02:55:30;99725.68;;;7.93;73.10
78409;BME280;67697;50.750;-3.270;2023-04-01T02:57:56;99729.93;;;8.00;73.46
78409;BME280;67697;50.750;-3.270;2023-04-01T03:00:22;99726.61;;;7.90;73.16
78409;BME280;67697;50.750;-3.270;2023-04-01T03:02:47;99730.50;;;7.88;74.16
78409;BME280;67697;50.750;-3.270;2023-04-01T03:05:13;99729.78;;;8.24;72.33
78409;BME280;67697;50.750;-3.270;2023-04-01T03:07:39;99728.91;;;8.17;72.64
78409;BME280;67697;50.750;-3.270;2023-04-01T03:10:06;99727.66;;;8.37;71.65
78409;BME280;67697;50.750;-3.270;2023-04-01T03:12:30;99734.56;;;8.02;72.77
78409;BME280;67697;50.750;-3.270;2023-04-01T03:14:56;99735.18;;;8.25;73.03
78409;BME280;67697;50.750;-3.270;2023-04-01T03:17:21;99737.41;;;8.26;71.31
78409;BME280;67697;50.750;-3.270;2023-04-01T03:19:46;99744.46;;;7.84;73.27
78409;BME280;67697;50.750;-3.270;2023-04-01T03:22:12;99745.04;;;7.94;73.47
78409;BME280;67697;50.750;-3.270;2023-04-01T03:24:37;99747.23;;;8.39;71.93
78409;BME280;67697;50.750;-3.270;2023-04-01T03:27:03;99746.25;;;7.72;72.50
78409;BME280;67697;50.750;-3.270;2023-04-01T03:29:29;99747.34;;;8.13;72.93
78409;BME280;67697;50.750;-3.270;2023-04-01T03:31:54;99750.08;;;7.72;73.43
78409;BME280;67697;50.750;-3.270;2023-04-01T03:34:19;99755.51;;;7.83;73.56
78409;BME280;67697;50.750;-3.270;2023-04-01T03:36:45;99752.10;;;8.07;72.51
78409;BME280;67697;50.750;-3.270;2023-04-01T03:39:11;99755.39;;;7.98;71.73
78409;BME280;67697;50.750;-3.270;2023-04-01T03:41:37;99755.91;;;8.20;71.70
78409;BME280;67697;50.750;-3.270;2023-04-01T03:44:02;99758.06;;;7.52;73.43
78409;BME280;67697;50.750;-3.270;2023-04-01T03:46:28;99762.99;;;7.79;72.88
78409;BME280;67697;50.750;-3.270;2023-04-01T03:48:54;99766.70;;;8.23;71.70
78409;BME280;67697;50.750;-3.270;2023-04-01T03:51:19;99766.06;;;8.10;72.03
78409;BME280;67697;50.750;-3.270;2023-04-01T03:53:45;99764.22;;;8.26;71.33
78409;BME280;67697;50.750;-3.270;2023-04-01T03:56:11;99771.14;;;8.42;70.82
78409;BME280;67697;50.750;-3.270;2023-04-01T03:58:36;99773.58;;;7.78;72.22
78409;BME280;67697;50.750;-3.270;2023-04-01T04:01:02;99774.03;;;8.18;71.51
78409;BME280;67697;50.750;-3.270;2023-04-01T04:03:28;99778.11;;;8.02;71.72
78409;BME280;67697;50.750;-3.270;2023-04-01T04:05:53;99785.20;;;8.30;70.37
78409;BME280;67697;50.750;-3.270;2023-04-01T04:08:18;99782.52;;;8.32;69.97
78409;BME280;67697;50.750;-3.270;2023-04-01T04:10:43;99783.57;;;7.95;70.39
78409;BME280;67697;50.750;-3.270;2023-04-01T04:13:09;99783.21;;;7.49;72.06
78409;BME280;67697;50.750;-3.270;2023-04-01T04:15:34;99783.00;;;7.99;71.98
78409;BME280;67697;50.750;-3.270;2023-04-01T04:18:00;99783.63;;;7.99;72.26
78409;BME280;67697;50.750;-3.270;2023-04-01T04:20:25;99788.74;;;7.83;72.05
78409;BME280;67697;50.750;-3.270;2023-04-01T04:22:51;99788.27;;;7.87;72.05
78409;BME280;67697;50.750;-3.270;2023-04-01T04:25:17;99790.98;;;7.79;72.93
78409;BME280;67697;50.750;-3.270;2023-04-01T04:27:42;99791.73;;;7.91;72.50
78409;BME280;67697;50.750;-3.270;2023-04-01T04:30:09;99792.23;;;7.39;71.89
78409;BME280;67697;50.750;-3.270;2023-04-01T04:32:34;99786.29;;;8.13;71.45
78409;BME280;67697;50.750;-3.270;2023-04-01T04:35:00;99793.50;;;8.23;70.64
78409;BME280;67697;50.750;-3.270;2023-04-01T04:37:25;99785.56;;;7.92;71.63
78409;BME280;67697;50.750;-3.270;2023-04-01T04:39:51;99784.40;;;7.90;70.75
78409;BME280;67697;50.750;-3.270;2023-04-01T04:42:17;99789.38;;;8.37;70.26
78409;BME280;67697;50.750;-3.270;2023-04-01T04:44:42;99785.38;;;7.94;70.68
78409;BME280;67697;50.750;-3.270;2023-04-01T04:47:08;99790.03;;;8.14;70.62
78409;BME280;67697;50.750;-3.270;2023-04-01T04:49:34;99787.43;;;7.55;71.88
78409;BME280;67697;50.750;-3.270;2023-04-01T04:51:59;99798.60;;;7.75;70.65
78409;BME280;67697;50.750;-3.270;2023-04-01T04:54:25;99794.14;;;7.63;71.41
78409;BME280;67697;50.750;-3.270;2023-04-01T04:56:51;99794.08;;;8.19;70.79
78409;BME280;67697;50.750;-3.270;2023-04-01T04:59:16;99800.12;;;8.14;70.29
78409;BME280;67697;50.750;-3.270;2023-04-01T05:01:42;99800.77;;;7.82;71.31
78409;BME280;67697;50.750;-3.270;2023-04-01T05:04:08;99799.26;;;7.80;70.76
78409;BME280;67697;50.750;-3.270;2023-04-01T05:06:33;99803.06;;;7.80;71.17
78409;BME280;67697;50.750;-3.270;2023-04-01T05:08:59;99804.41;;;7.82;71.70
78409;BME280;67697;50.750;-3.270;2023-04-01T05:11:25;99804.99;;;7.64;72.58
78409;BME280;67697;50.750;-3.270;2023-04-01T05:13:50;99811.08;;;7.94;70.77
78409;BME280;67697;50.750;-3.270;2023-04-01T05:16:17;99812.67;;;7.87;71.44
78409;BME280;67697;50.750;-3.270;2023-04-01T05:18:42;99816.16;;;7.72;71.96
78409;BME280;67697;50.750;-3.270;2023-04-01T05:21:08;99813.06;;;7.71;71.88
78409;BME280;67697;50.750;-3.270;2023-04-01T05:23:33;99813.32;;;7.69;73.35
78409;BME280;67697;50.750;-3.270;2023-04-01T05:25:59;99819.82;;;7.60;72.58
78409;BME280;67697;50.750;-3.270;2023-04-01T05:28:24;99823.24;;;7.61;72.45
78409;BME280;67697;50.750;-3.270;2023-04-01T05:30:50;99823.71;;;7.65;72.07
78409;BME280;67697;50.750;-3.270;2023-04-01T05:33:15;99823.12;;;7.70;71.93
78409;BME280;67697;50.750;-3.270;2023-04-01T05:35:42;99823.80;;;7.91;71.28
78409;BME280;67697;50.750;-3.270;2023-04-01T05:38:07;99826.94;;;8.17;69.21
78409;BME280;67697;50.750;-3.270;2023-04-01T05:40:33;99827.54;;;8.03;70.84
78409;BME280;67697;50.750;-3.270;2023-04-01T05:42:59;99829.27;;;7.93;71.64
78409;BME280;67697;50.750;-3.270;2023-04-01T05:45:24;99836.07;;;7.86;70.07
78409;BME280;67697;50.750;-3.270;2023-04-01T05:47:50;99841.19;;;7.52;72.65
78409;BME280;67697;50.750;-3.270;2023-04-01T05:50:15;99842.66;;;7.51;74.10
78409;BME280;67697;50.750;-3.270;2023-04-01T05:52:41;99841.87;;;7.38;73.78
78409;BME280;67697;50.750;-3.270;2023-04-01T05:55:07;99844.38;;;7.74;72.12
78409;BME280;67697;50.750;-3.270;2023-04-01T05:57:33;99850.07;;;8.36;70.30
78409;BME280;67697;50.750;-3.270;2023-04-01T05:59:58;99849.26;;;7.99;71.71
78409;BME280;67697;50.750;-3.270;2023-04-01T06:02:24;99851.22;;;8.06;70.55
78409;BME280;67697;50.750;-3.270;2023-04-01T06:04:55;99857.84;;;7.78;72.42
78409;BME280;67697;50.750;-3.270;2023-04-01T06:07:17;99857.98;;;8.34;69.96
78409;BME280;67697;50.750;-3.270;2023-04-01T06:09:41;99857.89;;;7.88;70.96
78409;BME280;67697;50.750;-3.270;2023-04-01T06:12:23;99856.09;;;8.01;70.94
78409;BME280;67697;50.750;-3.270;2023-04-01T06:14:38;99853.85;;;7.94;71.11
78409;BME280;67697;50.750;-3.270;2023-04-01T06:17:10;99850.00;;;8.10;70.50
78409;BME280;67697;50.750;-3.270;2023-04-01T06:19:36;99848.51;;;8.11;70.07
78409;BME280;67697;50.750;-3.270;2023-04-01T06:22:06;99850.80;;;7.92;72.06
78409;BME280;67697;50.750;-3.270;2023-04-01T06:24:27;99856.90;;;7.78;71.45
78409;BME280;67697;50.750;-3.270;2023-04-01T06:26:46;99857.60;;;7.84;72.12
78409;BME280;67697;50.750;-3.270;2023-04-01T06:29:21;99857.06;;;7.60;73.02
78409;BME280;67697;50.750;-3.270;2023-04-01T06:31:42;99863.66;;;7.42;73.48
78409;BME280;67697;50.750;-3.270;2023-04-01T06:34:12;99858.38;;;7.55;74.65
78409;BME280;67697;50.750;-3.270;2023-04-01T06:36:35;99861.77;;;7.52;74.01
78409;BME280;67697;50.750;-3.270;2023-04-01T06:39:01;99863.23;;;7.67;73.92
78409;BME280;67697;50.750;-3.270;2023-04-01T06:41:34;99864.24;;;7.87;72.23
78409;BME280;67697;50.750;-3.270;2023-04-01T06:43:49;99863.38;;;7.59;73.00
78409;BME280;67697;50.750;-3.270;2023-04-01T06:46:13;99866.17;;;7.94;72.25
78409;BME280;67697;50.750;-3.270;2023-04-01T06:48:43;99870.34;;;8.23;70.45
78409;BME280;67697;50.750;-3.270;2023-04-01T06:51:04;99877.68;;;8.07;70.67
78409;BME280;67697;50.750;-3.270;2023-04-01T06:53:26;99880.66;;;7.22;75.27
78409;BME280;67697;50.750;-3.270;2023-04-01T06:55:53;99882.97;;;7.89;72.98
78409;BME280;67697;50.750;-3.270;2023-04-01T06:58:20;99885.92;;;7.60;73.92
78409;BME280;67697;50.750;-3.270;2023-04-01T07:00:42;99884.81;;;7.91;73.98
78409;BME280;67697;50.750;-3.270;2023-04-01T07:03:13;99884.63;;;7.85;72.70
78409;BME280;67697;50.750;-3.270;2023-04-01T07:05:32;99890.92;;;7.52;72.97
78409;BME280;67697;50.750;-3.270;2023-04-01T07:08:01;99891.38;;;8.51;70.12
78409;BME280;67697;50.750;-3.270;2023-04-01T07:10:31;99892.33;;;7.81;72.79
78409;BME280;67697;50.750;-3.270;2023-04-01T07:12:51;99891.75;;;8.31;71.19
78409;BME280;67697;50.750;-3.270;2023-04-01T07:15:19;99888.73;;;7.82;73.08
78409;BME280;67697;50.750;-3.270;2023-04-01T07:20:11;99894.07;;;7.41;73.73
78409;BME280;67697;50.750;-3.270;2023-04-01T07:22:32;99892.42;;;7.44;74.61
78409;BME280;67697;50.750;-3.270;2023-04-01T07:25:01;99892.13;;;7.47;74.22
78409;BME280;67697;50.750;-3.270;2023-04-01T07:27:23;99900.75;;;8.09;72.30
78409;BME280;67697;50.750;-3.270;2023-04-01T07:29:48;99906.05;;;8.06;72.42
78409;BME280;67697;50.750;-3.270;2023-04-01T07:32:21;99904.02;;;7.58;72.95
78409;BME280;67697;50.750;-3.270;2023-04-01T07:34:47;99900.09;;;7.97;71.64
78409;BME280;67697;50.750;-3.270;2023-04-01T07:37:09;99910.23;;;8.06;72.76
78409;BME280;67697;50.750;-3.270;2023-04-01T07:39:38;99907.36;;;8.30;71.52
78409;BME280;67697;50.750;-3.270;2023-04-01T07:42:01;99911.23;;;7.94;72.02
78409;BME280;67697;50.750;-3.270;2023-04-01T07:44:27;99910.12;;;7.47;73.91
78409;BME280;67697;50.750;-3.270;2023-04-01T07:46:55;99919.52;;;8.29;72.47
78409;BME280;67697;50.750;-3.270;2023-04-01T07:49:15;99916.31;;;8.23;70.90
78409;BME280;67697;50.750;-3.270;2023-04-01T07:51:43;99920.69;;;8.15;72.18
78409;BME280;67697;50.750;-3.270;2023-04-01T07:54:09;99920.18;;;8.44;70.04
78409;BME280;67697;50.750;-3.270;2023-04-01T07:56:36;99922.17;;;8.10;71.26
78409;BME280;67697;50.750;-3.270;2023-04-01T07:59:01;99930.53;;;8.44;71.09
78409;BME280;67697;50.750;-3.270;2023-04-01T08:01:26;99927.44;;;8.04;71.29
78409;BME280;67697;50.750;-3.270;2023-04-01T08:04:03;99931.27;;;8.54;70.23
78409;BME280;67697;50.750;-3.270;2023-04-01T08:06:18;99934.72;;;8.66;69.76
78409;BME280;67697;50.750;-3.270;2023-04-01T08:08:46;99939.12;;;8.01;73.21
78409;BME280;67697;50.750;-3.270;2023-04-01T08:11:10;99943.45;;;8.39;72.60
78409;BME280;67697;50.750;-3.270;2023-04-01T08:13:35;99940.05;;;8.23;71.06
78409;BME280;67697;50.750;-3.270;2023-04-01T08:16:01;99941.35;;;8.21;70.77
78409;BME280;67697;50.750;-3.270;2023-04-01T08:18:28;99942.19;;;8.74;69.25
78409;BME280;67697;50.750;-3.270;2023-04-01T08:20:48;99946.10;;;8.85;69.31
78409;BME280;67697;50.750;-3.270;2023-04-01T08:23:15;99946.81;;;9.31;67.82
78409;BME280;67697;50.750;-3.270;2023-04-01T08:25:40;99950.40;;;8.61;68.07
78409;BME280;67697;50.750;-3.270;2023-04-01T08:28:10;99951.86;;;9.05;67.71
78409;BME280;67697;50.750;-3.270;2023-04-01T08:30:35;99956.10;;;8.69;68.30
78409;BME280;67697;50.750;-3.270;2023-04-01T08:32:57;99954.72;;;8.64;68.86
78409;BME280;67697;50.750;-3.270;2023-04-01T08:35:26;99957.30;;;9.43;66.14
78409;BME280;67697;50.750;-3.270;2023-04-01T08:37:45;99958.81;;;9.53;65.09
78409;BME280;67697;50.750;-3.270;2023-04-01T08:40:39;99958.63;;;10.01;63.93
78409;BME280;67697;50.750;-3.270;2023-04-01T08:42:50;99955.77;;;8.75;66.08
78409;BME280;67697;50.750;-3.270;2023-04-01T08:45:13;99967.08;;;8.79;66.30
78409;BME280;67697;50.750;-3.270;2023-04-01T08:47:44;99964.87;;;8.93;67.31
78409;BME280;67697;50.750;-3.270;2023-04-01T08:50:07;99965.80;;;9.14;65.64
78409;BME280;67697;50.750;-3.270;2023-04-01T08:52:26;99970.55;;;8.74;66.99
78409;BME280;67697;50.750;-3.270;2023-04-01T08:54:51;99973.09;;;9.51;64.30
78409;BME280;67697;50.750;-3.270;2023-04-01T08:57:15;99975.02;;;9.13;65.11
78409;BME280;67697;50.750;-3.270;2023-04-01T08:59:45;99974.49;;;9.40;64.96
78409;BME280;67697;50.750;-3.270;2023-04-01T09:02:18;99972.77;;;9.91;63.24
78409;BME280;67697;50.750;-3.270;2023-04-01T09:04:39;99977.10;;;9.88;62.65
78409;BME280;67697;50.750;-3.270;2023-04-01T09:07:00;99971.24;;;10.19;60.50
78409;BME280;67697;50.750;-3.270;2023-04-01T09:09:28;99987.00;;;9.03;63.41
78409;BME280;67697;50.750;-3.270;2023-04-01T09:11:55;99992.82;;;8.73;65.69
78409;BME280;67697;50.750;-3.270;2023-04-01T09:14:26;99986.55;;;8.85;65.75
78409;BME280;67697;50.750;-3.270;2023-04-01T09:16:53;99985.68;;;8.90;65.22
78409;BME280;67697;50.750;-3.270;2023-04-01T09:19:09;99986.00;;;8.39;66.70
78409;BME280;67697;50.750;-3.270;2023-04-01T09:21:37;99985.56;;;8.71;66.11
78409;BME280;67697;50.750;-3.270;2023-04-01T09:26:27;99994.62;;;8.69;65.96
78409;BME280;67697;50.750;-3.270;2023-04-01T09:28:47;100000.11;;;9.00;65.81
78409;BME280;67697;50.750;-3.270;2023-04-01T09:31:17;99995.24;;;8.88;65.47
78409;BME280;67697;50.750;-3.270;2023-04-01T09:33:52;100003.18;;;9.21;65.15
78409;BME280;67697;50.750;-3.270;2023-04-01T09:36:04;99999.60;;;9.43;65.16
78409;BME280;67697;50.750;-3.270;2023-04-01T09:38:30;99999.30;;;9.51;65.37
78409;BME280;67697;50.750;-3.270;2023-04-01T09:40:56;100004.19;;;9.47;65.15
78409;BME280;67697;50.750;-3.270;2023-04-01T09:43:25;100007.55;;;9.32;65.52
78409;BME280;67697;50.750;-3.270;2023-04-01T09:45:51;100010.07;;;9.61;64.61
78409;BME280;67697;50.750;-3.270;2023-04-01T09:48:16;100011.10;;;9.58;66.25
78409;BME280;67697;50.750;-3.270;2023-04-01T09:50:38;100009.69;;;9.54;65.92
78409;BME280;67697;50.750;-3.270;2023-04-01T09:53:07;100012.72;;;9.30;66.01
78409;BME280;67697;50.750;-3.270;2023-04-01T10:05:27;100021.10;;;8.94;70.50
78409;BME280;67697;50.750;-3.270;2023-04-01T10:12:45;100029.48;;;9.39;69.46
78409;BME280;67697;50.750;-3.270;2023-04-01T10:17:30;100036.23;;;9.65;66.62
78409;BME280;67697;50.750;-3.270;2023-04-01T10:19:55;100036.87;;;9.39;69.09
78409;BME280;67697;50.750;-3.270;2023-04-01T10:22:17;100039.47;;;9.51;68.43
78409;BME280;67697;50.750;-3.270;2023-04-01T10:24:43;100041.88;;;9.33;68.80
78409;BME280;67697;50.750;-3.270;2023-04-01T10:27:07;100042.25;;;9.70;68.12
78409;BME280;67697;50.750;-3.270;2023-04-01T10:29:42;100038.32;;;9.76;67.69
78409;BME280;67697;50.750;-3.270;2023-04-01T10:36:51;100044.35;;;10.27;67.90
78409;BME280;67697;50.750;-3.270;2023-04-01T10:46:41;100054.63;;;10.15;65.82
78409;BME280;67697;50.750;-3.270;2023-04-01T10:49:06;100064.88;;;10.25;66.23
78409;BME280;67697;50.750;-3.270;2023-04-01T10:51:25;100064.43;;;9.97;65.43
78409;BME280;67697;50.750;-3.270;2023-04-01T10:53:46;100063.52;;;10.37;65.25
78409;BME280;67697;50.750;-3.270;2023-04-01T10:56:19;100063.07;;;10.62;63.88
78409;BME280;67697;50.750;-3.270;2023-04-01T11:01:11;100074.98;;;8.70;68.76
78409;BME280;67697;50.750;-3.270;2023-04-01T11:22:56;100089.61;;;9.91;70.71
78409;BME280;67697;50.750;-3.270;2023-04-01T11:25:24;100091.99;;;9.55;70.67
78409;BME280;67697;50.750;-3.270;2023-04-01T11:27:50;100092.68;;;9.50;70.84
78409;BME280;67697;50.750;-3.270;2023-04-01T11:30:20;100091.48;;;9.42;70.35
78409;BME280;67697;50.750;-3.270;2023-04-01T11:32:39;100090.90;;;9.60;68.95
78409;BME280;67697;50.750;-3.270;2023-04-01T11:35:06;100095.27;;;9.79;68.60
78409;BME280;67697;50.750;-3.270;2023-04-01T11:37:31;100096.48;;;10.86;63.53
78409;BME280;67697;50.750;-3.270;2023-04-01T11:39:56;100102.21;;;10.50;65.57
78409;BME280;67697;50.750;-3.270;2023-04-01T11:42:20;100110.61;;;10.22;66.61
78409;BME280;67697;50.750;-3.270;2023-04-01T11:44:43;100110.66;;;10.74;65.18
78409;BME280;67697;50.750;-3.270;2023-04-01T11:47:19;100116.21;;;10.14;65.90
78409;BME280;67697;50.750;-3.270;2023-04-01T11:49:41;100118.83;;;10.16;66.73
78409;BME280;67697;50.750;-3.270;2023-04-01T11:52:06;100118.03;;;10.05;65.02
78409;BME280;67697;50.750;-3.270;2023-04-01T11:54:33;100127.38;;;9.46;67.60
78409;BME280;67697;50.750;-3.270;2023-04-01T11:56:57;100129.26;;;9.14;68.47
78409;BME280;67697;50.750;-3.270;2023-04-01T12:01:47;100128.34;;;9.26;69.56
78409;BME280;67697;50.750;-3.270;2023-04-01T12:06:35;100140.42;;;8.73;72.17
78409;BME280;67697;50.750;-3.270;2023-04-01T12:09:01;100142.00;;;8.99;71.70
78409;BME280;67697;50.750;-3.270;2023-04-01T12:11:24;100144.78;;;9.89;69.19
78409;BME280;67697;50.750;-3.270;2023-04-01T12:13:52;100146.06;;;9.79;70.22
78409;BME280;67697;50.750;-3.270;2023-04-01T12:16:25;100151.28;;;10.02;67.37
78409;BME280;67697;50.750;-3.270;2023-04-01T12:18:41;100149.48;;;9.42;68.80
78409;BME280;67697;50.750;-3.270;2023-04-01T12:21:11;100154.14;;;10.72;68.21
78409;BME280;67697;50.750;-3.270;2023-04-01T12:23:44;100155.43;;;10.28;65.35
78409;BME280;67697;50.750;-3.270;2023-04-01T12:26:09;100164.51;;;10.56;67.91
78409;BME280;67697;50.750;-3.270;2023-04-01T12:28:24;100167.56;;;9.78;67.94
78409;BME280;67697;50.750;-3.270;2023-04-01T12:30:51;100172.19;;;9.47;69.47
78409;BME280;67697;50.750;-3.270;2023-04-01T12:33:24;100172.09;;;9.43;68.72
78409;BME280;67697;50.750;-3.270;2023-04-01T12:35:46;100179.38;;;10.16;65.82
78409;BME280;67697;50.750;-3.270;2023-04-01T12:38:15;100176.67;;;10.38;65.78
78409;BME280;67697;50.750;-3.270;2023-04-01T12:40:43;100178.54;;;9.70;65.08
78409;BME280;67697;50.750;-3.270;2023-04-01T12:43:04;100189.09;;;9.92;65.77
78409;BME280;67697;50.750;-3.270;2023-04-01T12:45:28;100189.35;;;9.12;67.75
78409;BME280;67697;50.750;-3.270;2023-04-01T12:50:19;100196.22;;;9.29;64.55
78409;BME280;67697;50.750;-3.270;2023-04-01T12:52:44;100201.53;;;9.58;65.64
78409;BME280;67697;50.750;-3.270;2023-04-01T12:55:18;100205.39;;;8.59;68.12
78409;BME280;67697;50.750;-3.270;2023-04-01T13:02:27;100222.06;;;8.68;71.73
78409;BME280;67697;50.750;-3.270;2023-04-01T13:04:56;100228.09;;;8.01;73.89
78409;BME280;67697;50.750;-3.270;2023-04-01T13:07:22;100231.08;;;8.16;73.73
78409;BME280;67697;50.750;-3.270;2023-04-01T13:09:43;100234.72;;;8.69;72.23
78409;BME280;67697;50.750;-3.270;2023-04-01T13:12:27;100234.09;;;9.04;71.08
78409;BME280;67697;50.750;-3.270;2023-04-01T13:14:50;100235.14;;;9.13;70.10
78409;BME280;67697;50.750;-3.270;2023-04-01T13:16:56;100241.24;;;9.09;69.42
78409;BME280;67697;50.750;-3.270;2023-04-01T13:19:21;100256.81;;;9.53;68.15
78409;BME280;67697;50.750;-3.270;2023-04-01T13:21:51;100241.87;;;9.37;68.51
78409;BME280;67697;50.750;-3.270;2023-04-01T13:24:20;100245.37;;;8.95;69.55
78409;BME280;67697;50.750;-3.270;2023-04-01T13:26:39;100246.36;;;9.47;68.88
78409;BME280;67697;50.750;-3.270;2023-04-01T13:29:04;100248.60;;;9.50;68.20
78409;BME280;67697;50.750;-3.270;2023-04-01T13:31:35;100249.84;;;9.95;67.26
78409;BME280;67697;50.750;-3.270;2023-04-01T13:34:06;100264.88;;;9.29;68.59
78409;BME280;67697;50.750;-3.270;2023-04-01T13:36:26;100262.60;;;9.22;69.27
78409;BME280;67697;50.750;-3.270;2023-04-01T13:38:53;100265.02;;;9.37;68.72
78409;BME280;67697;50.750;-3.270;2023-04-01T13:41:18;100268.07;;;9.80;68.11
78409;BME280;67697;50.750;-3.270;2023-04-01T13:43:37;100271.39;;;8.99;69.84
78409;BME280;67697;50.750;-3.270;2023-04-01T13:46:20;100277.48;;;9.54;69.33
78409;BME280;67697;50.750;-3.270;2023-04-01T13:51:00;100292.33;;;11.36;64.42
78409;BME280;67697;50.750;-3.270;2023-04-01T13:53:25;100293.45;;;10.41;65.52
78409;BME280;67697;50.750;-3.270;2023-04-01T13:55:53;100298.36;;;10.12;65.58
78409;BME280;67697;50.750;-3.270;2023-04-01T13:58:20;100301.96;;;11.24;63.15
78409;BME280;67697;50.750;-3.270;2023-04-01T14:00:45;100305.55;;;10.93;63.72